createdAt,value
2023-01-23T00:00:00.718Z,93.71
2023-01-23T00:03:03.392Z,93.74
2023-01-23T00:06:08.360Z,94.59
2023-01-23T00:09:11.227Z,94.15
2023-01-23T00:12:15.229Z,95.04
2023-01-23T00:15:17.935Z,94.38
2023-01-23T00:18:20.555Z,94.92
2023-01-23T00:21:26.019Z,95.01
2023-01-23T00:24:28.589Z,94.85
2023-01-23T00:27:32.946Z,93.92
2023-01-23T00:30:35.610Z,95.10
2023-01-23T00:33:38.273Z,94.04
2023-01-23T00:36:42.566Z,95.03
2023-01-23T00:39:45.921Z,94.64
2023-01-23T00:42:49.994Z,94.67
2023-01-23T00:45:52.912Z,95.33
2023-01-23T00:48:55.539Z,95.11
2023-01-23T00:51:58.127Z,96.00
2023-01-23T00:55:00.700Z,95.96
2023-01-23T00:58:04.639Z,95.02
2023-01-23T01:01:07.321Z,95.55
2023-01-23T01:04:10.210Z,95.08
2023-01-23T01:07:12.831Z,95.36
2023-01-23T01:10:16.114Z,94.99
2023-01-23T01:13:21.511Z,95.63
2023-01-23T01:16:25.022Z,94.91
2023-01-23T01:19:28.367Z,96.14
2023-01-23T01:22:30.974Z,95.82
2023-01-23T01:25:33.565Z,95.26
2023-01-23T01:28:39.282Z,95.67
2023-01-23T01:31:41.914Z,95.17
2023-01-23T01:34:44.514Z,96.54
2023-01-23T01:37:47.388Z,96.98
2023-01-23T01:40:50.373Z,96.66
2023-01-23T01:43:57.030Z,97.63
2023-01-23T01:46:59.621Z,96.69
2023-01-23T01:50:05.478Z,96.74
2023-01-23T01:53:08.100Z,95.97
2023-01-23T01:56:13.553Z,96.26
2023-01-23T01:59:19.313Z,96.68
2023-01-23T02:02:26.423Z,96.80
2023-01-23T02:05:32.602Z,96.06
2023-01-23T02:08:41.018Z,96.88
2023-01-23T02:11:44.121Z,96.76
2023-01-23T02:14:48.150Z,96.20
2023-01-23T02:17:55.607Z,96.91
2023-01-23T02:21:02.428Z,96.22
2023-01-23T02:24:15.583Z,96.97
2023-01-23T02:27:19.566Z,96.66
2023-01-23T02:30:22.597Z,97.02
2023-01-23T02:33:45.752Z,96.84
2023-01-23T02:36:50.156Z,96.89
2023-01-23T02:39:52.744Z,96.37
2023-01-23T02:42:57.342Z,96.39
2023-01-23T02:46:02.868Z,96.60
2023-01-23T02:49:05.661Z,96.36
2023-01-23T02:52:09.585Z,96.42
2023-01-23T02:55:12.227Z,97.13
2023-01-23T02:58:38.817Z,97.14
2023-01-23T03:01:41.445Z,96.86
2023-01-23T03:04:44.030Z,96.91
2023-01-23T03:07:46.616Z,96.33
2023-01-23T03:10:49.224Z,97.67
2023-01-23T03:13:53.155Z,96.53
2023-01-23T03:16:55.758Z,96.63
2023-01-23T03:19:58.372Z,97.62
2023-01-23T03:23:00.988Z,97.46
2023-01-23T03:26:03.930Z,97.16
2023-01-23T03:29:25.654Z,97.50
2023-01-23T03:32:29.283Z,97.51
2023-01-23T03:35:32.741Z,97.29
2023-01-23T03:38:35.326Z,98.04
2023-01-23T03:41:39.100Z,97.41
2023-01-23T03:44:43.224Z,96.68
2023-01-23T03:47:45.816Z,97.97
2023-01-23T03:50:48.523Z,98.07
2023-01-23T03:53:51.118Z,97.64
2023-01-23T03:56:53.833Z,96.79
2023-01-23T03:59:57.766Z,97.65
2023-01-23T04:03:00.419Z,97.09
2023-01-23T04:06:03.322Z,96.88
2023-01-23T04:09:06.663Z,96.76
2023-01-23T04:12:09.249Z,97.65
2023-01-23T04:15:13.631Z,97.08
2023-01-23T04:18:16.239Z,97.93
2023-01-23T04:21:19.228Z,97.88
2023-01-23T04:24:21.822Z,97.36
2023-01-23T04:27:24.451Z,97.13
2023-01-23T04:30:28.504Z,97.42
2023-01-23T04:33:31.201Z,98.21
2023-01-23T04:36:33.804Z,97.53
2023-01-23T04:39:36.408Z,97.27
2023-01-23T04:42:41.019Z,97.71
2023-01-23T04:45:45.409Z,97.97
2023-01-23T04:48:48.921Z,98.34
2023-01-23T04:51:52.515Z,97.80
2023-01-23T04:54:55.131Z,97.93
2023-01-23T04:57:57.895Z,97.10
2023-01-23T05:01:06.774Z,97.84
2023-01-23T05:04:09.465Z,98.24
2023-01-23T05:07:12.674Z,97.96
2023-01-23T05:10:16.323Z,97.59
2023-01-23T05:13:18.930Z,97.52
2023-01-23T05:16:22.890Z,98.54
2023-01-23T05:19:25.586Z,97.96
2023-01-23T05:22:28.363Z,97.59
2023-01-23T05:25:30.963Z,98.05
2023-01-23T05:28:33.603Z,98.87
2023-01-23T05:31:37.660Z,97.91
2023-01-23T05:34:40.443Z,98.02
2023-01-23T05:37:43.024Z,98.27
2023-01-23T05:40:45.599Z,97.38
2023-01-23T05:43:49.950Z,97.37
2023-01-23T05:46:53.895Z,97.49
2023-01-23T05:49:56.506Z,98.04
2023-01-23T05:52:59.092Z,96.97
2023-01-23T05:56:06.678Z,97.59
2023-01-23T05:59:10.209Z,97.86
2023-01-23T06:02:14.204Z,98.47
2023-01-23T06:05:17.265Z,97.65
2023-01-23T06:08:19.923Z,97.37
2023-01-23T06:11:22.510Z,97.32
2023-01-23T06:14:25.101Z,97.68
2023-01-23T06:17:29.060Z,99.29
2023-01-23T06:20:31.660Z,98.16
2023-01-23T06:23:34.249Z,97.82
2023-01-23T06:26:36.884Z,97.67
2023-01-23T06:29:39.494Z,97.72
2023-01-23T06:32:43.628Z,98.77
2023-01-23T06:35:46.267Z,98.52
2023-01-23T06:38:48.841Z,98.81
2023-01-23T06:41:51.515Z,98.30
2023-01-23T06:44:54.209Z,98.10
2023-01-23T06:47:58.270Z,98.26
2023-01-23T06:51:01.852Z,97.90
2023-01-23T06:54:04.699Z,98.00
2023-01-23T06:57:07.294Z,98.85
2023-01-23T07:00:11.202Z,99.35
2023-01-23T07:03:16.002Z,98.69
2023-01-23T07:06:18.691Z,99.17
2023-01-23T07:09:21.286Z,98.11
2023-01-23T07:12:23.916Z,98.45
2023-01-23T07:15:26.661Z,98.07
2023-01-23T07:18:32.520Z,98.65
2023-01-23T07:21:35.130Z,97.66
2023-01-23T07:24:37.730Z,98.50
2023-01-23T07:27:41.009Z,98.99
2023-01-23T07:30:43.691Z,97.94
2023-01-23T07:33:47.722Z,98.39
2023-01-23T07:36:50.342Z,97.92
2023-01-23T07:39:53.451Z,98.57
2023-01-23T07:42:57.650Z,98.26
2023-01-23T07:46:00.690Z,98.66
2023-01-23T07:49:04.605Z,98.35
2023-01-23T07:52:07.499Z,97.76
2023-01-23T07:55:10.650Z,98.78
2023-01-23T07:58:13.265Z,99.30
2023-01-23T08:01:15.946Z,99.11
2023-01-23T08:04:20.331Z,99.72
2023-01-23T08:07:23.855Z,98.83
2023-01-23T08:10:26.465Z,99.23
2023-01-23T08:13:29.083Z,99.00
2023-01-23T08:16:32.269Z,98.95
2023-01-23T08:19:36.279Z,98.79
2023-01-23T08:22:40.729Z,98.49
2023-01-23T08:25:43.340Z,99.58
2023-01-23T08:28:46.833Z,98.03
2023-01-23T08:31:49.606Z,97.88
2023-01-23T08:34:54.970Z,98.21
2023-01-23T08:37:57.543Z,98.07
2023-01-23T08:41:02.806Z,98.83
2023-01-23T08:44:05.842Z,98.11
2023-01-23T08:47:08.516Z,97.38
2023-01-23T08:50:13.296Z,98.02
2023-01-23T08:53:16.984Z,98.33
2023-01-23T08:56:22.189Z,97.69
2023-01-23T08:59:24.923Z,97.52
2023-01-23T09:02:27.550Z,97.04
2023-01-23T09:05:32.348Z,97.97
2023-01-23T09:08:36.103Z,97.73
2023-01-23T09:11:38.771Z,98.08
2023-01-23T09:14:41.453Z,97.73
2023-01-23T09:17:44.321Z,98.59
2023-01-23T09:20:48.302Z,99.00
2023-01-23T09:23:51.125Z,97.50
2023-01-23T09:26:53.759Z,98.40
2023-01-23T09:29:56.353Z,97.82
2023-01-23T09:32:58.933Z,98.86
2023-01-23T09:36:02.951Z,98.34
2023-01-23T09:39:05.616Z,98.11
2023-01-23T09:42:09.566Z,98.23
2023-01-23T09:45:17.118Z,99.33
2023-01-23T09:48:24.965Z,97.91
2023-01-23T09:51:35.551Z,97.49
2023-01-23T09:54:44.473Z,98.09
2023-01-23T09:57:52.817Z,98.66
2023-01-23T10:00:55.515Z,99.44
2023-01-23T10:03:59.353Z,99.06
2023-01-23T10:07:26.110Z,99.38
2023-01-23T10:10:47.773Z,98.21
2023-01-23T10:14:03.367Z,97.81
2023-01-23T10:17:15.913Z,99.00
2023-01-23T10:20:43.356Z,98.38
2023-01-23T10:23:58.402Z,97.56
2023-01-23T10:27:12.497Z,97.36
2023-01-23T10:30:22.513Z,97.30
2023-01-23T10:33:34.911Z,96.92
2023-01-23T10:36:48.241Z,96.37
2023-01-23T10:40:02.657Z,95.43
2023-01-23T10:43:10.399Z,96.14
2023-01-23T10:46:15.460Z,94.56
2023-01-23T10:49:32.404Z,95.92
2023-01-23T10:52:37.562Z,95.46
2023-01-23T10:55:46.448Z,95.06
2023-01-23T10:58:49.803Z,94.75
2023-01-23T11:02:02.018Z,95.13
2023-01-23T11:05:25.847Z,95.07
2023-01-23T11:08:31.933Z,94.41
2023-01-23T11:11:34.557Z,94.14
2023-01-23T11:14:38.451Z,93.92
2023-01-23T11:17:43.413Z,93.72
2023-01-23T11:20:55.534Z,93.73
2023-01-23T11:24:18.841Z,93.92
2023-01-23T11:27:27.035Z,93.93
2023-01-23T11:30:37.131Z,94.17
2023-01-23T11:33:47.519Z,93.58
2023-01-23T11:36:55.026Z,94.36
2023-01-23T11:40:02.536Z,93.68
2023-01-23T11:43:10.986Z,92.68
2023-01-23T11:46:30.250Z,92.58
2023-01-23T11:49:55.844Z,93.73
2023-01-23T11:53:06.051Z,93.33
2023-01-23T11:56:36.802Z,92.66
2023-01-23T12:00:07.258Z,93.11
2023-01-23T12:03:46.212Z,94.24
2023-01-23T12:07:03.082Z,95.09
2023-01-23T12:10:18.871Z,93.21
2023-01-23T12:13:44.750Z,93.30
2023-01-23T12:17:00.506Z,92.91
2023-01-23T12:20:19.545Z,93.04
2023-01-23T12:23:45.636Z,92.93
2023-01-23T12:27:01.618Z,93.71
2023-01-23T12:30:43.141Z,93.82
2023-01-23T12:34:00.440Z,94.31
2023-01-23T12:37:29.862Z,92.70
2023-01-23T12:40:39.440Z,93.10
2023-01-23T12:43:48.992Z,94.16
2023-01-23T12:46:57.200Z,93.62
2023-01-23T12:50:07.886Z,93.01
2023-01-23T12:53:12.315Z,93.13
2023-01-23T12:56:18.389Z,93.48
2023-01-23T12:59:28.566Z,92.93
2023-01-23T13:02:39.903Z,93.20
2023-01-23T13:05:54.814Z,93.17
2023-01-23T13:09:12.932Z,92.58
2023-01-23T13:12:23.177Z,91.48
2023-01-23T13:15:40.654Z,92.89
2023-01-23T13:19:11.602Z,92.75
2023-01-23T13:22:28.630Z,92.21
2023-01-23T13:25:34.895Z,93.87
2023-01-23T13:28:44.866Z,93.50
2023-01-23T13:31:51.676Z,93.47
2023-01-23T13:34:54.339Z,93.52
2023-01-23T13:37:59.966Z,93.93
2023-01-23T13:41:39.276Z,93.29
2023-01-23T13:45:15.116Z,94.07
2023-01-23T14:20:24.717Z,93.69
2023-01-23T14:23:30.628Z,93.75
2023-01-23T14:26:35.095Z,93.52
2023-01-23T14:29:39.054Z,93.14
2023-01-23T14:32:41.744Z,92.62
2023-01-23T14:35:45.045Z,92.80
2023-01-23T14:38:49.226Z,92.39
2023-01-23T14:41:54.868Z,93.07
2023-01-23T14:45:01.806Z,94.26
2023-01-23T14:48:07.577Z,93.80
2023-01-23T14:51:19.613Z,94.14
2023-01-23T14:54:23.396Z,93.04
2023-01-23T14:57:27.746Z,92.85
2023-01-23T15:00:32.951Z,93.93
2023-01-23T15:03:40.352Z,94.00
2023-01-23T15:06:43.369Z,93.83
2023-01-23T15:09:46.542Z,94.37
2023-01-23T15:12:55.549Z,94.04
2023-01-23T15:16:01.972Z,94.56
2023-01-23T15:19:08.369Z,94.24
2023-01-23T15:22:20.149Z,94.31
2023-01-23T15:25:34.528Z,94.74
2023-01-23T15:28:40.912Z,95.49
2023-01-23T15:31:47.522Z,95.00
2023-01-23T15:34:54.512Z,94.08
2023-01-23T15:38:04.661Z,93.79
2023-01-23T15:41:11.129Z,93.92
2023-01-23T15:44:15.604Z,93.16
2023-01-23T15:47:19.578Z,92.98
2023-01-23T15:50:22.373Z,94.08
2023-01-23T15:53:24.976Z,94.45
2023-01-23T15:56:30.380Z,93.69
2023-01-23T15:59:34.345Z,95.07
2023-01-23T16:02:47.237Z,94.11
2023-01-23T16:05:57.507Z,93.61
2023-01-23T16:09:05.713Z,93.67
2023-01-23T16:12:15.404Z,93.61
2023-01-23T16:15:20.402Z,94.62
2023-01-23T16:18:24.640Z,94.43
2023-01-23T16:21:31.081Z,94.35
2023-01-23T16:24:37.575Z,94.92
2023-01-23T16:27:40.448Z,94.87
2023-01-23T16:30:43.114Z,95.02
2023-01-23T16:33:47.112Z,94.42
2023-01-23T16:36:50.882Z,95.40
2023-01-23T16:39:53.519Z,95.45
2023-01-23T16:42:56.842Z,94.71
2023-01-23T16:45:59.463Z,95.09
2023-01-23T16:49:03.406Z,94.87
2023-01-23T16:52:06.674Z,95.03
2023-01-23T16:55:22.726Z,94.19
2023-01-23T16:58:28.990Z,94.55
2023-01-23T17:01:37.113Z,95.13
2023-01-23T17:04:41.051Z,94.85
2023-01-23T17:07:43.755Z,94.24
2023-01-23T17:10:47.752Z,94.70
2023-01-23T17:13:56.557Z,95.99
2023-01-23T17:17:03.271Z,95.08
2023-01-23T17:20:11.382Z,94.67
2023-01-23T17:23:15.258Z,95.00
2023-01-23T17:26:18.933Z,95.22
2023-01-23T17:29:21.820Z,95.76
2023-01-23T17:32:30.361Z,96.43
2023-01-23T17:35:37.361Z,95.86
2023-01-23T17:38:41.985Z,96.05
2023-01-23T17:41:44.586Z,96.32
2023-01-23T17:44:47.220Z,95.51
2023-01-23T17:47:52.850Z,95.82
2023-01-23T17:50:57.481Z,95.18
2023-01-23T17:54:00.432Z,96.22
2023-01-23T17:57:03.024Z,96.49
2023-01-23T18:00:06.662Z,94.97
2023-01-23T18:03:13.207Z,96.03
2023-01-23T18:06:17.864Z,96.31
2023-01-23T18:09:21.269Z,96.48
2023-01-23T18:12:31.718Z,96.05
2023-01-23T18:15:41.378Z,95.75
2023-01-23T18:18:46.630Z,95.83
2023-01-23T18:21:53.407Z,97.14
2023-01-23T18:24:56.609Z,96.19
2023-01-23T18:28:04.948Z,96.25
2023-01-23T18:31:16.884Z,95.00
2023-01-23T18:34:31.953Z,96.43
2023-01-23T18:37:46.819Z,96.45
2023-01-23T18:41:03.506Z,95.78
2023-01-23T18:44:13.432Z,95.73
2023-01-23T18:47:16.643Z,95.66
2023-01-23T18:50:22.737Z,97.05
2023-01-23T18:53:41.718Z,97.04
2023-01-23T18:56:56.486Z,96.99
2023-01-23T19:00:06.863Z,96.60
2023-01-23T19:03:14.639Z,96.83
2023-01-23T19:06:20.646Z,96.03
2023-01-23T19:09:26.191Z,96.33
2023-01-23T19:12:32.093Z,96.13
2023-01-23T19:15:41.243Z,96.31
2023-01-23T19:18:48.032Z,96.05
2023-01-23T19:21:52.122Z,96.66
2023-01-23T19:24:56.790Z,96.40
2023-01-23T19:28:01.397Z,97.13
2023-01-23T19:31:04.743Z,97.29
2023-01-23T19:34:08.467Z,96.81
2023-01-23T19:37:11.120Z,96.17
2023-01-23T19:40:16.869Z,97.14
2023-01-23T19:43:19.578Z,96.33
2023-01-23T19:46:26.268Z,97.15
2023-01-23T19:49:28.889Z,96.35
2023-01-23T19:52:31.468Z,96.53
2023-01-23T19:55:38.214Z,96.43
2023-01-23T19:58:41.375Z,95.92
2023-01-23T20:01:48.231Z,95.98
2023-01-23T20:04:50.859Z,95.84
2023-01-23T20:07:53.998Z,96.92
2023-01-23T20:10:58.017Z,96.00
2023-01-23T20:14:00.586Z,96.93
2023-01-23T20:17:03.254Z,96.32
2023-01-23T20:20:07.080Z,97.64
2023-01-23T20:23:09.704Z,97.76
2023-01-23T20:26:16.450Z,97.58
2023-01-23T20:29:19.124Z,97.38
2023-01-23T20:32:21.704Z,96.77
2023-01-23T20:35:24.341Z,96.82
2023-01-23T20:38:27.146Z,97.47
2023-01-23T20:41:31.105Z,97.66
2023-01-23T20:44:33.758Z,97.06
2023-01-23T20:47:36.575Z,96.92
2023-01-23T20:50:39.196Z,96.90
2023-01-23T20:53:42.408Z,98.04
2023-01-23T20:56:46.617Z,97.80
2023-01-23T20:59:48.236Z,97.27
2023-01-23T21:02:50.868Z,96.61
2023-01-23T21:05:53.531Z,98.17
2023-01-23T21:08:58.275Z,98.63
2023-01-23T21:12:02.560Z,97.05
2023-01-23T21:15:05.993Z,96.83
2023-01-23T21:18:08.714Z,96.24
2023-01-23T21:21:13.944Z,96.65
2023-01-23T21:24:16.630Z,96.71
2023-01-23T21:27:23.471Z,97.39
2023-01-23T21:30:27.095Z,97.41
2023-01-23T21:33:29.662Z,97.18
2023-01-23T21:36:32.661Z,97.07
2023-01-23T21:39:35.253Z,97.68
2023-01-23T21:42:39.219Z,97.99
2023-01-23T21:45:42.699Z,97.16
2023-01-23T21:48:45.481Z,96.85
2023-01-23T21:51:48.069Z,97.62
2023-01-23T21:54:50.694Z,98.24
2023-01-23T21:57:54.633Z,97.68
2023-01-23T22:01:15.610Z,97.92
2023-01-23T22:04:22.285Z,97.04
2023-01-23T22:07:24.882Z,97.92
2023-01-23T22:10:27.451Z,96.53
2023-01-23T22:13:31.456Z,97.08
2023-01-23T22:16:48.116Z,97.26
2023-01-23T22:19:51.879Z,97.40
2023-01-23T22:22:54.740Z,96.95
2023-01-23T22:25:59.505Z,96.45
2023-01-23T22:29:03.474Z,97.74
2023-01-23T22:32:06.481Z,96.88
2023-01-23T22:35:10.935Z,97.37
2023-01-23T22:38:15.488Z,97.50
2023-01-23T22:41:18.069Z,97.90
2023-01-23T22:44:22.007Z,96.71
2023-01-23T22:47:24.859Z,96.79
2023-01-23T22:50:29.393Z,96.24
2023-01-23T22:53:32.272Z,96.45
2023-01-23T22:56:34.848Z,95.74
2023-01-23T22:59:38.956Z,95.57
2023-01-23T23:02:41.855Z,95.68
2023-01-23T23:05:44.410Z,96.23
2023-01-23T23:08:48.545Z,95.90
2023-01-23T23:11:51.760Z,96.22
2023-01-23T23:14:55.844Z,95.64
2023-01-23T23:17:58.433Z,97.08
2023-01-23T23:21:01.928Z,97.25
2023-01-23T23:24:06.875Z,96.79
2023-01-23T23:27:09.505Z,95.58
2023-01-23T23:30:14.645Z,96.40
2023-01-23T23:33:17.327Z,95.79
2023-01-23T23:36:19.934Z,95.99
2023-01-23T23:39:22.565Z,95.59
2023-01-23T23:42:25.207Z,95.88
2023-01-23T23:45:29.174Z,96.81
2023-01-23T23:48:33.258Z,96.82
2023-01-23T23:51:35.959Z,97.13
2023-01-23T23:54:38.515Z,96.04
2023-01-23T23:57:41.474Z,96.41
